Time;durP1;ratioP1;P1;durP2;ratioP2;P2;SDS_P1;SDS_P2;PMS_P1;PMS_P2;Temp;Humidity;BMP_temperature;BMP_pressure;BME280_temperature;BME280_humidity;BME280_pressure;Samples;Min_cycle;Max_cycle;Signal;HPM_P1;HPM_P2
2021/10/20 00:00:57;;;;;;;3.91;3.16;;;;;;;4.40;57.64;101675.77;458754;115;922596;-76
2021/10/20 00:02:00;;;;;;;5.01;3.17;;;;;;;4.39;57.71;101677.61;459121;113;922696;-77
2021/10/20 00:03:04;;;;;;;5.52;3.54;;;;;;;4.37;57.67;101678.73;440272;118;922537;-77
2021/10/20 00:04:09;;;;;;;11.33;4.21;;;;;;;4.35;57.68;101684.31;438184;119;922613;-77
2021/10/20 00:05:12;;;;;;;4.75;3.99;;;;;;;4.34;57.83;101681.75;445742;117;923165;-77
2021/10/20 00:06:16;;;;;;;5.11;3.34;;;;;;;4.32;57.88;101671.09;446023;115;922445;-76
2021/10/20 00:07:19;;;;;;;4.76;3.39;;;;;;;4.32;58.00;101679.19;440196;119;922556;-76
2021/10/20 00:08:23;;;;;;;4.30;3.21;;;;;;;4.32;57.94;101671.09;443159;119;922715;-76
2021/10/20 00:09:26;;;;;;;5.44;3.46;;;;;;;4.33;58.23;101670.09;437144;119;922623;-76
2021/10/20 00:10:30;;;;;;;5.17;3.46;;;;;;;4.36;58.30;101675.19;442713;118;922720;-77
2021/10/20 00:11:34;;;;;;;5.41;4.16;;;;;;;4.39;58.35;101672.20;442674;119;927623;-77
2021/10/20 00:12:37;;;;;;;6.12;3.52;;;;;;;4.42;58.28;101666.50;436618;119;930577;-77
2021/10/20 00:13:40;;;;;;;5.04;3.54;;;;;;;4.44;58.15;101664.51;438854;118;922650;-77
2021/10/20 00:14:44;;;;;;;5.03;3.53;;;;;;;4.45;58.07;101670.77;439390;118;930541;-76
2021/10/20 00:15:48;;;;;;;6.76;4.33;;;;;;;4.44;58.01;101669.91;446588;117;923283;-76
2021/10/20 00:16:52;;;;;;;5.98;4.07;;;;;;;4.44;57.95;101669.91;445959;117;922697;-77
2021/10/20 00:17:55;;;;;;;4.80;4.04;;;;;;;4.44;57.84;101672.61;442830;117;922875;-78
2021/10/20 00:18:59;;;;;;;6.28;4.11;;;;;;;4.42;57.84;101669.20;446636;117;922546;-78
2021/10/20 00:20:07;;;;;;;4.82;3.35;;;;;;;4.40;57.80;101668.52;438367;120;930812;-76
2021/10/20 00:21:12;;;;;;;4.15;3.38;;;;;;;4.38;57.70;101664.25;442805;118;922769;-77
2021/10/20 00:22:15;;;;;;;4.77;3.45;;;;;;;4.36;57.62;101661.69;442082;117;922664;-76
2021/10/20 00:23:19;;;;;;;6.85;3.92;;;;;;;4.34;57.59;101658.30;441902;117;922997;-77
2021/10/20 00:24:23;;;;;;;5.38;3.74;;;;;;;4.34;57.58;101662.85;447536;117;930835;-78
2021/10/20 00:25:26;;;;;;;4.72;3.46;;;;;;;4.32;57.55;101660.29;437879;120;930643;-77
2021/10/20 00:26:29;;;;;;;5.53;3.62;;;;;;;4.32;57.50;101664.84;438145;120;922661;-76
2021/10/20 00:27:33;;;;;;;5.08;3.54;;;;;;;4.30;57.38;101664.98;437954;118;930625;-78
2021/10/20 00:28:36;;;;;;;3.62;2.97;;;;;;;4.25;57.25;101669.12;433751;122;922725;-77
2021/10/20 00:29:40;;;;;;;4.26;3.25;;;;;;;4.17;57.26;101670.72;452537;115;922560;-77
2021/10/20 00:30:43;;;;;;;3.73;2.86;;;;;;;4.11;57.27;101676.70;458455;114;930447;-77
2021/10/20 00:31:47;;;;;;;3.37;2.50;;;;;;;4.05;57.29;101668.34;456491;114;922889;-77
2021/10/20 00:32:50;;;;;;;4.83;2.82;;;;;;;4.01;57.30;101675.88;458179;115;922693;-77
2021/10/20 00:33:53;;;;;;;2.78;2.37;;;;;;;3.96;57.39;101683.56;444076;117;923348;-77
2021/10/20 00:34:57;;;;;;;3.31;2.34;;;;;;;3.91;57.40;101680.45;440723;117;923090;-79
2021/10/20 00:36:00;;;;;;;4.09;2.83;;;;;;;3.87;57.44;101679.02;440342;118;923385;-77
2021/10/20 00:37:03;;;;;;;4.02;2.77;;;;;;;3.84;57.53;101681.16;440681;119;922668;-77
2021/10/20 00:38:07;;;;;;;2.99;2.61;;;;;;;3.82;57.61;101691.23;440262;119;922536;-78
2021/10/20 00:39:10;;;;;;;2.99;2.56;;;;;;;3.80;57.66;101685.16;442184;117;923014;-78
2021/10/20 00:40:15;;;;;;;3.65;2.84;;;;;;;3.78;57.65;101685.29;442232;119;930703;-76
2021/10/20 00:41:19;;;;;;;4.06;3.14;;;;;;;3.79;57.66;101692.39;448850;117;922538;-77
2021/10/20 00:42:23;;;;;;;4.39;3.33;;;;;;;3.78;57.70;101693.38;442725;117;922621;-77
2021/10/20 00:43:28;;;;;;;3.12;2.82;;;;;;;3.77;57.76;101692.53;428135;121;922906;-77
2021/10/20 00:44:47;;;;;;;6.08;3.11;;;;;;;3.74;57.75;101686.58;444852;115;922918;-77
2021/10/20 00:45:51;;;;;;;4.48;3.30;;;;;;;3.71;57.81;101687.70;458296;114;922488;-78
2021/10/20 00:46:55;;;;;;;7.07;4.12;;;;;;;3.67;57.89;101685.44;454892;114;922854;-76
2021/10/20 00:47:59;;;;;;;10.12;5.23;;;;;;;3.65;58.02;101687.42;455869;114;922942;-77
2021/10/20 00:49:03;;;;;;;10.53;4.41;;;;;;;3.64;58.06;101688.41;457534;115;930654;-77
2021/10/20 00:50:10;;;;;;;5.11;3.60;;;;;;;3.62;58.09;101687.72;456224;115;922546;-78
2021/10/20 00:51:13;;;;;;;3.86;3.09;;;;;;;3.60;58.12;101690.55;456869;114;922565;-77
2021/10/20 00:52:19;;;;;;;2.66;2.37;;;;;;;3.58;58.07;101695.25;456912;114;922513;-76
2021/10/20 00:53:22;;;;;;;3.87;3.28;;;;;;;3.57;58.08;101688.16;456418;114;923002;-78
2021/10/20 00:54:28;;;;;;;3.32;2.53;;;;;;;3.57;58.08;101692.69;458054;113;922501;-76
2021/10/20 00:55:31;;;;;;;3.28;2.43;;;;;;;3.56;58.05;101694.53;461687;114;922564;-77
2021/10/20 00:56:36;;;;;;;2.83;2.18;;;;;;;3.55;58.04;101684.73;462888;113;923424;-77
2021/10/20 00:57:41;;;;;;;4.44;3.54;;;;;;;3.57;58.07;101687.30;462071;114;930377;-76
2021/10/20 00:58:45;;;;;;;4.21;3.02;;;;;;;3.56;58.15;101688.29;463580;114;922631;-76
2021/10/20 00:59:50;;;;;;;3.82;3.30;;;;;;;3.58;58.20;101684.47;446119;117;922774;-77
2021/10/20 01:00:53;;;;;;;6.74;4.75;;;;;;;3.59;58.20;101698.77;445699;117;923169;-76
2021/10/20 01:01:57;;;;;;;4.64;4.20;;;;;;;3.57;58.25;101696.24;447264;117;930653;-77
2021/10/20 01:03:01;;;;;;;4.88;3.55;;;;;;;3.58;58.26;101697.09;447907;118;930412;-77
2021/10/20 01:04:04;;;;;;;4.46;3.69;;;;;;;3.58;58.22;101702.49;444301;117;922484;-76
2021/10/20 01:05:09;;;;;;;4.33;3.92;;;;;;;3.57;58.16;101712.42;443981;117;922495;-77
2021/10/20 01:06:14;;;;;;;4.26;3.56;;;;;;;3.56;58.18;101712.55;444872;118;922863;-77
2021/10/20 01:07:19;;;;;;;3.75;3.36;;;;;;;3.56;58.22;101710.72;448885;117;923402;-77
2021/10/20 01:08:22;;;;;;;2.82;2.61;;;;;;;3.56;58.24;101710.72;448713;116;922765;-77
2021/10/20 01:09:25;;;;;;;3.61;3.17;;;;;;;3.54;58.19;101711.83;449928;115;930347;-75
2021/10/20 01:10:30;;;;;;;3.69;3.31;;;;;;;3.54;58.20;101717.23;448087;117;922681;-76
2021/10/20 01:11:34;;;;;;;4.01;3.57;;;;;;;3.53;58.18;101718.25;448516;117;930948;-77
2021/10/20 01:12:38;;;;;;;3.72;3.40;;;;;;;3.52;58.19;101717.39;450983;115;930732;-76
2021/10/20 01:13:42;;;;;;;3.89;3.23;;;;;;;3.51;58.14;101715.69;447722;117;930557;-77
2021/10/20 01:14:46;;;;;;;3.16;2.47;;;;;;;3.50;58.17;101713.97;452406;115;922659;-76
2021/10/20 01:15:49;;;;;;;3.32;3.02;;;;;;;3.51;58.15;101718.37;451256;116;922631;-76
2021/10/20 01:16:53;;;;;;;4.56;2.95;;;;;;;3.50;58.21;101711.28;452535;116;922546;-77
2021/10/20 01:17:56;;;;;;;5.62;3.44;;;;;;;3.50;58.24;101719.37;444257;116;930687;-76
2021/10/20 01:19:00;;;;;;;3.39;2.67;;;;;;;3.49;58.23;101728.44;443964;116;923169;-78
2021/10/20 01:20:05;;;;;;;3.92;3.06;;;;;;;3.49;58.23;101717.66;450978;117;922597;-77
2021/10/20 01:21:18;;;;;;;3.36;2.37;;;;;;;3.48;58.20;101720.48;447372;116;930562;-77
2021/10/20 01:22:22;;;;;;;3.00;2.51;;;;;;;3.46;58.22;101717.95;453070;116;922591;-76
2021/10/20 01:23:25;;;;;;;4.31;2.43;;;;;;;3.43;58.22;101720.92;447777;117;922674;-77
2021/10/20 01:24:30;;;;;;;2.91;2.14;;;;;;;3.41;58.30;101722.92;445352;116;930731;-75
2021/10/20 01:25:33;;;;;;;5.34;2.32;;;;;;;3.39;58.38;101722.20;444520;116;930357;-78
2021/10/20 01:26:37;;;;;;;2.96;2.06;;;;;;;3.37;58.45;101716.08;447630;117;923029;-78
2021/10/20 01:27:40;;;;;;;2.93;1.96;;;;;;;3.34;58.52;101728.02;447383;118;930461;-77
2021/10/20 01:28:44;;;;;;;2.67;2.00;;;;;;;3.33;58.61;101733.54;447963;117;923007;-76
2021/10/20 01:29:48;;;;;;;3.43;2.46;;;;;;;3.30;58.68;101726.60;452873;115;923026;-76
2021/10/20 01:30:51;;;;;;;2.88;2.49;;;;;;;3.28;58.79;101725.02;450545;115;922802;-75
2021/10/20 01:31:57;;;;;;;5.42;2.80;;;;;;;3.26;58.83;101726.99;448085;116;922893;-76
2021/10/20 01:33:01;;;;;;;4.57;2.49;;;;;;;3.24;58.90;101726.30;440386;118;930641;-75
2021/10/20 01:34:04;;;;;;;2.87;2.21;;;;;;;3.22;58.97;101734.52;444188;117;923184;-76
2021/10/20 01:35:08;;;;;;;2.30;1.86;;;;;;;3.22;59.09;101737.21;444333;117;922685;-76
2021/10/20 01:36:13;;;;;;;2.56;2.28;;;;;;;3.23;59.13;101732.67;443605;118;930404;-76
2021/10/20 01:37:17;;;;;;;2.40;2.10;;;;;;;3.22;59.17;101731.82;445821;117;922979;-75
2021/10/20 01:38:20;;;;;;;2.14;1.94;;;;;;;3.23;59.23;101727.28;443125;116;930443;-77
2021/10/20 01:39:24;;;;;;;2.34;2.14;;;;;;;3.24;59.21;101731.69;444341;118;923045;-75
2021/10/20 01:40:27;;;;;;;4.36;2.53;;;;;;;3.25;59.21;101728.83;444659;118;922577;-77
2021/10/20 01:41:33;;;;;;;3.46;2.27;;;;;;;3.27;59.22;101731.40;447970;117;922552;-76
2021/10/20 01:42:37;;;;;;;2.93;2.30;;;;;;;3.26;59.20;101733.23;452125;114;922505;-76
2021/10/20 01:43:43;;;;;;;2.94;2.62;;;;;;;3.26;59.15;101737.77;444274;117;922599;-76
2021/10/20 01:44:46;;;;;;;3.75;2.60;;;;;;;3.23;59.09;101735.37;447097;118;922544;-76
2021/10/20 01:45:50;;;;;;;2.78;2.37;;;;;;;3.22;59.08;101737.21;447682;117;923185;-78
2021/10/20 01:46:54;;;;;;;3.35;3.05;;;;;;;3.21;59.03;101731.95;450305;115;930925;-77
2021/10/20 01:47:57;;;;;;;3.72;2.83;;;;;;;3.18;58.94;101740.33;444951;117;922579;-77
2021/10/20 01:49:00;;;;;;;4.61;2.50;;;;;;;3.15;59.01;101744.14;448093;117;930632;-76
2021/10/20 01:50:08;;;;;;;2.62;2.41;;;;;;;3.13;59.05;101748.84;448100;117;922827;-78
2021/10/20 01:51:12;;;;;;;3.11;2.51;;;;;;;3.11;58.98;101742.72;451032;115;922609;-77
2021/10/20 01:52:16;;;;;;;2.70;2.48;;;;;;;3.07;58.99;101746.69;444954;118;922612;-77
2021/10/20 01:53:19;;;;;;;3.38;2.79;;;;;;;3.04;59.05;101746.09;444046;116;922760;-76
2021/10/20 01:54:23;;;;;;;3.00;2.55;;;;;;;2.99;59.19;101751.04;441679;117;922951;-77
2021/10/20 01:55:26;;;;;;;2.69;2.44;;;;;;;2.94;59.29;101749.63;444283;117;930384;-77
2021/10/20 01:56:31;;;;;;;2.99;2.68;;;;;;;2.90;59.39;101750.89;444290;118;923124;-75
2021/10/20 01:57:35;;;;;;;3.98;2.35;;;;;;;2.88;59.53;101747.47;448035;117;922877;-76
2021/10/20 01:58:40;;;;;;;3.10;2.80;;;;;;;2.85;59.49;101753.14;445693;116;930944;-74
2021/10/20 01:59:43;;;;;;;4.40;2.85;;;;;;;2.83;59.62;101746.17;444933;116;922772;-76
2021/10/20 02:00:47;;;;;;;3.26;2.74;;;;;;;2.81;59.65;101762.46;446269;118;922915;-77
2021/10/20 02:01:50;;;;;;;2.69;2.40;;;;;;;2.80;59.77;101754.55;444049;118;930861;-76
2021/10/20 02:02:54;;;;;;;3.04;2.59;;;;;;;2.79;59.80;101758.22;444717;118;930609;-77
2021/10/20 02:03:57;;;;;;;2.82;2.57;;;;;;;2.76;59.77;101753.08;452546;115;930712;-77
2021/10/20 02:05:00;;;;;;;3.44;3.02;;;;;;;2.73;59.95;101759.61;445427;117;922660;-78
2021/10/20 02:06:13;;;;;;;3.12;2.89;;;;;;;2.71;59.99;101761.58;446105;118;923060;-76
2021/10/20 02:07:17;;;;;;;3.54;2.71;;;;;;;2.70;60.08;101762.56;447047;117;930602;-77
2021/10/20 02:08:22;;;;;;;2.86;2.58;;;;;;;2.69;60.10;101763.57;444664;117;922724;-76
2021/10/20 02:09:25;;;;;;;4.06;2.89;;;;;;;2.67;60.13;101760.16;446149;118;922582;-78
2021/10/20 02:10:30;;;;;;;3.60;2.91;;;;;;;2.66;60.29;101765.66;446579;118;922934;-78
2021/10/20 02:11:36;;;;;;;2.81;2.61;;;;;;;2.65;60.26;101762.11;444973;116;923166;-78
2021/10/20 02:12:40;;;;;;;3.61;3.27;;;;;;;2.67;60.24;101764.68;444428;118;930677;-76
2021/10/20 02:13:43;;;;;;;3.04;2.47;;;;;;;2.67;60.28;101767.38;445305;117;923087;-78
2021/10/20 02:14:46;;;;;;;3.16;2.89;;;;;;;2.66;60.30;101777.28;450229;115;922827;-77
2021/10/20 02:15:51;;;;;;;2.95;2.70;;;;;;;2.65;60.26;101770.19;451740;115;923893;-76
2021/10/20 02:16:54;;;;;;;3.31;3.01;;;;;;;2.65;60.24;101769.34;451138;116;922534;-76
2021/10/20 02:17:58;;;;;;;3.47;3.17;;;;;;;2.63;60.26;101766.80;450255;116;922598;-76
2021/10/20 02:19:01;;;;;;;3.56;2.82;;;;;;;2.63;60.24;101774.88;451249;116;922800;-78
2021/10/20 02:20:08;;;;;;;3.09;2.57;;;;;;;2.63;60.23;101772.19;447435;116;922581;-77
2021/10/20 02:21:11;;;;;;;4.13;2.98;;;;;;;2.63;60.31;101774.02;441707;118;922729;-76
2021/10/20 02:22:15;;;;;;;3.64;3.06;;;;;;;2.63;60.34;101774.88;447415;117;922602;-76
2021/10/20 02:23:19;;;;;;;3.56;2.86;;;;;;;2.64;60.32;101779.28;448545;117;922586;-77
2021/10/20 02:24:23;;;;;;;3.66;3.02;;;;;;;2.64;60.27;101779.28;443667;116;922660;-76
2021/10/20 02:25:27;;;;;;;4.16;2.84;;;;;;;2.64;60.23;101773.04;444917;118;930583;-77
2021/10/20 02:26:31;;;;;;;3.19;2.74;;;;;;;2.63;60.24;101779.41;453141;116;922506;-75
2021/10/20 02:27:34;;;;;;;3.76;2.44;;;;;;;2.64;60.29;101783.81;448266;117;922951;-77
2021/10/20 02:28:38;;;;;;;4.73;2.95;;;;;;;2.61;60.26;101776.84;444219;117;930655;-77
2021/10/20 02:29:41;;;;;;;3.49;3.15;;;;;;;2.62;60.31;101783.08;453734;116;922676;-76
2021/10/20 02:30:45;;;;;;;3.66;3.34;;;;;;;2.60;60.38;101777.82;453104;116;922966;-77
2021/10/20 02:31:50;;;;;;;3.54;2.94;;;;;;;2.61;60.44;101776.84;447571;116;922937;-76
2021/10/20 02:32:54;;;;;;;3.74;2.94;;;;;;;2.63;60.51;101777.57;452407;115;923514;-76
2021/10/20 02:33:57;;;;;;;2.86;2.54;;;;;;;2.65;60.45;101778.27;447465;117;922606;-77
2021/10/20 02:35:02;;;;;;;3.63;3.17;;;;;;;2.65;60.39;101778.27;446812;118;923124;-77
2021/10/20 02:36:06;;;;;;;4.02;3.32;;;;;;;2.64;60.36;101781.97;444116;117;922785;-77
2021/10/20 02:37:10;;;;;;;4.83;3.76;;;;;;;2.63;60.31;101777.57;447571;117;923137;-76
2021/10/20 02:38:13;;;;;;;3.11;2.62;;;;;;;2.61;60.36;101775.98;449729;116;922853;-76
2021/10/20 02:39:17;;;;;;;7.54;3.03;;;;;;;2.59;60.31;101778.83;445338;118;923517;-77
2021/10/20 02:40:21;;;;;;;2.78;2.55;;;;;;;2.58;60.33;101782.50;450904;115;930645;-77
2021/10/20 02:41:24;;;;;;;3.24;2.49;;;;;;;2.58;60.40;101781.66;443411;117;923250;-77
2021/10/20 02:42:28;;;;;;;2.86;2.36;;;;;;;2.56;60.38;101781.78;444456;117;930771;-78
2021/10/20 02:43:35;;;;;;;2.85;2.46;;;;;;;2.55;60.44;101777.38;445050;117;922895;-76
2021/10/20 02:44:37;;;;;;;4.52;3.14;;;;;;;2.54;60.41;101782.91;444582;118;922636;-77
2021/10/20 02:45:40;;;;;;;3.36;2.85;;;;;;;2.50;60.48;101780.47;447946;116;923028;-77
2021/10/20 02:46:43;;;;;;;3.99;3.01;;;;;;;2.48;60.60;101782.44;444649;117;930386;-77
2021/10/20 02:47:47;;;;;;;3.98;2.59;;;;;;;2.47;60.65;101782.59;452833;116;922622;-78
2021/10/20 02:48:50;;;;;;;4.53;2.85;;;;;;;2.46;60.64;101783.57;451499;115;922553;-78
2021/10/20 02:49:54;;;;;;;4.79;3.19;;;;;;;2.45;60.75;101774.64;447771;117;928139;-75
2021/10/20 02:50:58;;;;;;;6.49;2.69;;;;;;;2.45;60.70;101781.86;449499;117;922742;-74
2021/10/20 02:52:01;;;;;;;3.44;3.16;;;;;;;2.43;60.71;101781.12;453723;115;922502;-76
2021/10/20 02:53:05;;;;;;;3.49;3.04;;;;;;;2.41;60.79;101785.81;453415;114;922636;-77
2021/10/20 02:54:08;;;;;;;3.35;3.05;;;;;;;2.39;60.87;101780.55;452989;115;930527;-77
2021/10/20 02:55:12;;;;;;;3.42;3.12;;;;;;;2.38;60.93;101786.05;444390;118;930544;-76
2021/10/20 02:56:17;;;;;;;3.37;2.96;;;;;;;2.38;60.95;101784.22;447443;118;922557;-78
2021/10/20 02:57:21;;;;;;;3.09;2.86;;;;;;;2.38;60.96;101786.91;445850;117;922531;-75
2021/10/20 02:58:24;;;;;;;4.32;2.83;;;;;;;2.39;60.98;101780.55;445704;117;922870;-76
2021/10/20 02:59:28;;;;;;;3.13;2.78;;;;;;;2.40;61.03;101787.64;446157;118;923167;-78
2021/10/20 03:00:32;;;;;;;3.02;2.77;;;;;;;2.40;60.92;101790.34;446523;118;922849;-79
2021/10/20 03:01:37;;;;;;;4.13;2.41;;;;;;;2.40;61.00;101790.34;445880;117;922913;-78
2021/10/20 03:02:41;;;;;;;2.59;2.35;;;;;;;2.41;60.99;101797.43;437195;118;922706;-77
2021/10/20 03:03:45;;;;;;;2.84;2.45;;;;;;;2.41;60.98;101796.58;435329;118;930284;-75
2021/10/20 03:04:49;;;;;;;3.28;2.42;;;;;;;2.41;60.96;101797.43;440193;119;922518;-77
2021/10/20 03:05:52;;;;;;;3.19;2.81;;;;;;;2.43;60.99;101794.58;445204;117;922643;-77
2021/10/20 03:06:55;;;;;;;2.70;2.26;;;;;;;2.42;60.88;101791.06;445536;117;923065;-76
2021/10/20 03:07:59;;;;;;;3.31;2.41;;;;;;;2.41;60.89;101792.05;435807;120;922624;-77
2021/10/20 03:09:03;;;;;;;3.58;2.19;;;;;;;2.37;60.92;101798.66;439779;118;922873;-77
2021/10/20 03:10:06;;;;;;;3.48;2.18;;;;;;;2.35;60.93;101803.34;436951;119;930372;-76
2021/10/20 03:11:10;;;;;;;3.19;2.29;;;;;;;2.36;61.08;101801.50;445326;117;922914;-77
2021/10/20 03:12:13;;;;;;;2.45;2.24;;;;;;;2.36;61.08;101806.89;446335;117;922832;-77
2021/10/20 03:13:17;;;;;;;3.66;2.15;;;;;;;2.35;61.12;101803.34;446341;117;922526;-75
2021/10/20 03:14:20;;;;;;;3.06;2.11;;;;;;;2.35;61.13;101807.86;446634;117;922715;-77
2021/10/20 03:15:24;;;;;;;2.46;1.98;;;;;;;2.33;61.14;101801.75;445761;117;922616;-78
2021/10/20 03:16:28;;;;;;;2.93;2.26;;;;;;;2.33;61.16;101807.13;441833;117;930560;-77
2021/10/20 03:17:31;;;;;;;2.09;1.75;;;;;;;2.31;61.23;101804.59;437958;119;923460;-77
2021/10/20 03:18:36;;;;;;;3.31;2.50;;;;;;;2.30;61.20;101805.58;448081;116;930422;-76
2021/10/20 03:19:39;;;;;;;2.42;2.21;;;;;;;2.29;61.24;101803.86;454663;115;922519;-77
2021/10/20 03:20:42;;;;;;;3.56;2.51;;;;;;;2.29;61.26;101797.62;454290;115;922667;-77
2021/10/20 03:21:46;;;;;;;3.78;2.09;;;;;;;2.29;61.25;101800.31;445030;117;922564;-77
2021/10/20 03:22:49;;;;;;;3.08;2.37;;;;;;;2.29;61.27;101798.48;440201;118;923146;-77
2021/10/20 03:23:53;;;;;;;4.35;2.37;;;;;;;2.31;61.26;101803.73;442554;119;930557;-77
2021/10/20 03:24:56;;;;;;;4.36;2.75;;;;;;;2.31;61.28;101795.67;442974;119;922626;-77
2021/10/20 03:26:00;;;;;;;4.60;2.09;;;;;;;2.30;61.29;101793.95;436547;118;930559;-76
2021/10/20 03:27:03;;;;;;;4.66;2.51;;;;;;;2.31;61.25;101795.67;437133;118;922872;-77
2021/10/20 03:28:07;;;;;;;4.08;2.39;;;;;;;2.30;61.26;101804.72;437747;119;922990;-75
2021/10/20 03:29:10;;;;;;;3.19;2.47;;;;;;;2.30;61.33;101804.72;441453;119;922619;-76
2021/10/20 03:30:18;;;;;;;3.48;2.62;;;;;;;2.29;61.35;101803.00;440621;119;922833;-76
2021/10/20 03:31:22;;;;;;;4.01;2.23;;;;;;;2.28;61.37;101802.16;441590;118;930414;-76
2021/10/20 03:32:25;;;;;;;2.94;2.10;;;;;;;2.30;61.44;101802.03;442619;119;923154;-76
2021/10/20 03:33:28;;;;;;;2.61;2.41;;;;;;;2.30;61.37;101805.58;441911;119;930458;-77
2021/10/20 03:34:32;;;;;;;4.64;2.61;;;;;;;2.28;61.38;101799.45;442656;118;922710;-77
2021/10/20 03:35:35;;;;;;;3.49;2.19;;;;;;;2.27;61.33;101802.27;443166;119;930440;-74
2021/10/20 03:36:39;;;;;;;2.81;1.86;;;;;;;2.26;61.36;101805.97;442468;119;922542;-76
2021/10/20 03:37:42;;;;;;;2.83;2.49;;;;;;;2.23;61.33;101803.53;444609;117;923094;-77
2021/10/20 03:38:46;;;;;;;2.61;2.41;;;;;;;2.21;61.34;101803.66;446249;117;930331;-76
2021/10/20 03:39:49;;;;;;;3.00;2.68;;;;;;;2.18;61.33;101806.62;438209;118;922980;-78
2021/10/20 03:40:53;;;;;;;5.39;3.15;;;;;;;2.14;61.42;101810.56;442982;118;922957;-77
2021/10/20 03:41:58;;;;;;;3.03;2.54;;;;;;;2.12;61.50;101806.28;441512;117;922709;-76
2021/10/20 03:43:02;;;;;;;3.19;2.89;;;;;;;2.08;61.79;101820.01;444671;117;922597;-77
2021/10/20 03:44:05;;;;;;;4.97;3.92;;;;;;;2.08;61.79;101820.01;438596;119;930514;-76
2021/10/20 03:45:10;;;;;;;3.30;2.81;;;;;;;2.07;61.81;101817.44;445577;118;922707;-75
2021/10/20 03:46:13;;;;;;;4.94;3.02;;;;;;;2.06;61.90;101823.80;443708;117;922767;-77
2021/10/20 03:47:20;;;;;;;3.61;2.55;;;;;;;2.09;61.95;101819.00;444029;117;922629;-76
2021/10/20 03:48:24;;;;;;;3.33;2.82;;;;;;;2.12;61.95;101822.42;438087;120;922710;-77
2021/10/20 03:49:27;;;;;;;5.03;3.37;;;;;;;2.12;61.92;101822.42;439282;120;922905;-76
2021/10/20 03:50:31;;;;;;;4.27;3.49;;;;;;;2.12;61.89;101823.28;438172;119;922987;-77
2021/10/20 03:51:34;;;;;;;5.80;3.39;;;;;;;2.10;61.92;101818.02;437217;120;922991;-76
2021/10/20 03:52:38;;;;;;;3.17;2.86;;;;;;;2.09;61.90;101816.30;440147;119;930637;-75
2021/10/20 03:53:41;;;;;;;3.34;3.03;;;;;;;2.08;62.02;101832.60;446750;117;923055;-77
2021/10/20 03:54:45;;;;;;;3.26;2.99;;;;;;;2.05;62.00;101831.01;446539;117;930590;-77
2021/10/20 03:55:48;;;;;;;4.96;3.22;;;;;;;2.03;62.03;101826.75;449028;116;922972;-78
2021/10/20 03:56:52;;;;;;;6.39;3.31;;;;;;;2.00;62.24;101829.69;447048;117;922531;-75
2021/10/20 03:57:55;;;;;;;5.08;3.36;;;;;;;1.99;62.20;101838.73;462059;114;930522;-77
2021/10/20 03:58:59;;;;;;;4.09;2.99;;;;;;;1.94;62.26;101833.75;463097;114;922521;-77
2021/10/20 04:00:06;;;;;;;7.55;3.39;;;;;;;1.95;62.29;101834.60;452842;115;922785;-76
2021/10/20 04:01:16;;;;;;;4.47;2.72;;;;;;;2.05;62.43;101836.39;473535;110;946805;-76
2021/10/20 04:02:20;;;;;;;3.50;2.93;;;;;;;1.94;62.48;101833.75;464752;113;922472;-76
2021/10/20 04:03:23;;;;;;;3.42;2.62;;;;;;;1.96;62.51;101833.63;464665;113;930924;-75
2021/10/20 04:04:27;;;;;;;7.16;3.05;;;;;;;1.96;62.53;101834.48;461862;113;922752;-76
2021/10/20 04:05:31;;;;;;;3.55;2.81;;;;;;;1.98;62.53;101834.36;458774;114;922380;-78
2021/10/20 04:06:35;;;;;;;3.99;2.74;;;;;;;2.00;62.54;101837.76;458999;114;930455;-78
2021/10/20 04:07:40;;;;;;;3.26;2.35;;;;;;;2.02;62.52;101844.73;459740;113;922637;-77
2021/10/20 04:08:43;;;;;;;5.31;2.81;;;;;;;2.05;62.47;101847.14;459983;114;923160;-74
2021/10/20 04:09:47;;;;;;;4.79;2.61;;;;;;;2.07;62.35;101841.65;459525;114;922831;-75
2021/10/20 04:10:50;;;;;;;8.03;3.03;;;;;;;2.09;62.30;101850.45;459514;114;930528;-77
2021/10/20 04:11:53;;;;;;;4.82;2.72;;;;;;;2.08;62.17;101852.28;457839;113;922829;-77
2021/10/20 04:12:57;;;;;;;3.67;2.88;;;;;;;2.10;62.14;101855.68;458216;114;922759;-77
2021/10/20 04:14:00;;;;;;;5.02;2.82;;;;;;;2.10;62.14;101850.30;457988;114;922487;-77
2021/10/20 04:15:04;;;;;;;3.59;2.34;;;;;;;2.12;62.20;101850.19;458681;114;922599;-78
2021/10/20 04:16:10;;;;;;;3.05;2.62;;;;;;;2.15;62.17;101855.29;457481;114;922525;-77
2021/10/20 04:17:13;;;;;;;2.72;2.27;;;;;;;2.19;62.13;101862.14;457096;114;922585;-77
2021/10/20 04:18:16;;;;;;;3.91;2.62;;;;;;;2.23;62.04;101860.89;457350;114;922558;-76
2021/10/20 04:19:20;;;;;;;3.89;2.29;;;;;;;2.25;61.95;101863.46;457279;114;923126;-76
2021/10/20 04:20:25;;;;;;;3.89;2.47;;;;;;;2.28;61.91;101868.57;457945;113;922706;-76
2021/10/20 04:21:29;;;;;;;5.03;4.47;;;;;;;2.28;61.86;101866.73;458353;114;922489;-76
2021/10/20 04:22:33;;;;;;;6.00;4.64;;;;;;;2.28;61.78;101858.66;459621;114;930433;-78
2021/10/20 04:23:37;;;;;;;6.39;4.87;;;;;;;2.29;61.71;101862.20;460097;114;922966;-76
2021/10/20 04:24:40;;;;;;;11.27;9.12;;;;;;;2.28;61.68;101864.05;461511;113;922766;-77
2021/10/20 04:25:44;;;;;;;19.68;16.36;;;;;;;2.29;61.74;101864.91;458828;114;922577;-75
2021/10/20 04:26:48;;;;;;;22.96;19.56;;;;;;;2.29;61.71;101864.91;461013;114;930534;-76
2021/10/20 04:27:52;;;;;;;26.66;22.56;;;;;;;2.28;61.66;101866.73;459060;114;930389;-76
2021/10/20 04:28:55;;;;;;;21.36;19.03;;;;;;;2.29;61.70;101873.83;458673;114;922623;-75
2021/10/20 04:30:00;;;;;;;19.82;17.82;;;;;;;2.31;61.66;101879.09;457786;114;930555;-76
2021/10/20 04:31:03;;;;;;;14.15;12.61;;;;;;;2.33;61.62;101874.41;458887;114;930646;-76
2021/10/20 04:32:07;;;;;;;10.67;9.75;;;;;;;2.35;61.59;101876.00;458930;114;922796;-76
2021/10/20 04:33:10;;;;;;;11.22;10.11;;;;;;;2.39;61.53;101873.89;458267;114;930519;-76
2021/10/20 04:34:14;;;;;;;10.58;7.24;;;;;;;2.41;61.47;101872.80;457661;114;930596;-75
2021/10/20 04:35:22;;;;;;;8.07;6.71;;;;;;;2.45;61.41;101879.62;458620;114;922613;-77
2021/10/20 04:36:25;;;;;;;6.84;6.23;;;;;;;2.49;61.33;101878.36;457310;114;922698;-74
2021/10/20 04:37:28;;;;;;;6.22;5.66;;;;;;;2.52;61.26;101879.95;457978;114;922632;-76
2021/10/20 04:38:32;;;;;;;7.85;5.97;;;;;;;2.55;61.15;101876.98;456700;114;922468;-76
2021/10/20 04:39:35;;;;;;;7.48;6.28;;;;;;;2.56;61.10;101883.22;456556;114;923052;-79
2021/10/20 04:40:39;;;;;;;7.51;6.64;;;;;;;2.56;61.07;101884.08;457783;113;923020;-77
2021/10/20 04:41:42;;;;;;;8.93;8.09;;;;;;;2.60;61.01;101881.97;460181;114;922526;-76
2021/10/20 04:42:46;;;;;;;8.68;7.64;;;;;;;2.62;61.00;101891.64;459057;114;923073;-77
2021/10/20 04:43:50;;;;;;;10.62;9.44;;;;;;;2.64;60.94;101889.68;459903;114;923004;-75
2021/10/20 04:44:55;;;;;;;12.39;10.57;;;;;;;2.66;60.95;101890.38;459960;114;930553;-79
2021/10/20 04:45:58;;;;;;;12.42;11.08;;;;;;;2.68;60.92;101893.81;459760;114;930224;-77
2021/10/20 04:47:01;;;;;;;12.78;11.57;;;;;;;2.70;60.84;101896.38;460407;114;922628;-76
2021/10/20 04:48:05;;;;;;;14.56;12.39;;;;;;;2.72;60.78;101903.32;459687;114;930320;-77
2021/10/20 04:49:09;;;;;;;15.61;13.69;;;;;;;2.73;60.79;101899.65;459572;114;922951;-76
2021/10/20 04:50:12;;;;;;;15.74;14.08;;;;;;;2.74;60.83;101901.36;458771;114;922874;-75
2021/10/20 04:51:16;;;;;;;18.66;16.81;;;;;;;2.77;60.86;101902.92;458558;114;923034;-76
2021/10/20 04:52:22;;;;;;;18.74;16.92;;;;;;;2.80;60.75;101899.98;458963;114;922523;-74
2021/10/20 04:53:25;;;;;;;17.02;15.36;;;;;;;2.80;60.68;101903.53;458772;114;930644;-76
2021/10/20 04:54:28;;;;;;;12.26;8.66;;;;;;;2.82;60.69;101909.62;457553;114;922640;-76
2021/10/20 04:55:33;;;;;;;13.48;9.23;;;;;;;2.83;60.67;101911.33;446541;117;922953;-77
2021/10/20 04:56:37;;;;;;;9.24;8.49;;;;;;;2.86;60.64;101913.78;447750;114;923112;-77
2021/10/20 04:57:40;;;;;;;9.14;7.63;;;;;;;2.91;60.50;101913.38;457439;114;922549;-77